sensor_id;sensor_type;location;lat;lon;timestamp;P1;durP1;ratioP1;P2;durP2;ratioP2
11539;SDS011;5826;54.756;9.192;2022-12-29T00:01:53;6.15;;;5.55;;
11539;SDS011;5826;54.756;9.192;2022-12-29T00:04:20;5.53;;;5.03;;
11539;SDS011;5826;54.756;9.192;2022-12-29T00:06:45;6.15;;;5.63;;
11539;SDS011;5826;54.756;9.192;2022-12-29T00:09:11;6.13;;;5.03;;
11539;SDS011;5826;54.756;9.192;2022-12-29T00:11:37;5.30;;;4.80;;
11539;SDS011;5826;54.756;9.192;2022-12-29T00:14:03;5.93;;;5.32;;
11539;SDS011;5826;54.756;9.192;2022-12-29T00:16:47;5.90;;;5.40;;
11539;SDS011;5826;54.756;9.192;2022-12-29T00:19:12;5.82;;;5.28;;
11539;SDS011;5826;54.756;9.192;2022-12-29T00:21:57;5.65;;;4.90;;
11539;SDS011;5826;54.756;9.192;2022-12-29T00:24:43;5.53;;;5.03;;
11539;SDS011;5826;54.756;9.192;2022-12-29T00:27:27;5.70;;;5.13;;
11539;SDS011;5826;54.756;9.192;2022-12-29T00:30:13;5.97;;;5.30;;
11539;SDS011;5826;54.756;9.192;2022-12-29T00:33:15;5.60;;;5.03;;
11539;SDS011;5826;54.756;9.192;2022-12-29T00:36:35;5.80;;;5.10;;
11539;SDS011;5826;54.756;9.192;2022-12-29T00:39:09;5.10;;;4.57;;
11539;SDS011;5826;54.756;9.192;2022-12-29T00:41:56;5.43;;;4.93;;
11539;SDS011;5826;54.756;9.192;2022-12-29T00:44:40;5.15;;;4.70;;
11539;SDS011;5826;54.756;9.192;2022-12-29T00:47:05;5.00;;;4.60;;
11539;SDS011;5826;54.756;9.192;2022-12-29T00:49:31;5.80;;;5.15;;
11539;SDS011;5826;54.756;9.192;2022-12-29T00:52:06;5.40;;;4.90;;
11539;SDS011;5826;54.756;9.192;2022-12-29T00:54:35;5.32;;;4.82;;
11539;SDS011;5826;54.756;9.192;2022-12-29T00:57:02;6.10;;;5.07;;
11539;SDS011;5826;54.756;9.192;2022-12-29T00:59:29;5.15;;;4.65;;
11539;SDS011;5826;54.756;9.192;2022-12-29T01:01:55;4.40;;;4.00;;
11539;SDS011;5826;54.756;9.192;2022-12-29T01:04:21;5.88;;;5.28;;
11539;SDS011;5826;54.756;9.192;2022-12-29T01:06:49;5.45;;;4.22;;
11539;SDS011;5826;54.756;9.192;2022-12-29T01:09:15;5.35;;;4.38;;
11539;SDS011;5826;54.756;9.192;2022-12-29T01:12:00;4.80;;;4.38;;
11539;SDS011;5826;54.756;9.192;2022-12-29T01:14:26;6.43;;;4.60;;
11539;SDS011;5826;54.756;9.192;2022-12-29T01:16:52;5.00;;;4.50;;
11539;SDS011;5826;54.756;9.192;2022-12-29T01:19:18;5.20;;;4.80;;
11539;SDS011;5826;54.756;9.192;2022-12-29T01:21:44;5.18;;;4.72;;
11539;SDS011;5826;54.756;9.192;2022-12-29T01:24:10;4.82;;;4.43;;
11539;SDS011;5826;54.756;9.192;2022-12-29T01:26:36;5.45;;;4.95;;
11539;SDS011;5826;54.756;9.192;2022-12-29T01:29:02;4.70;;;4.30;;
11539;SDS011;5826;54.756;9.192;2022-12-29T01:31:27;5.55;;;4.88;;
11539;SDS011;5826;54.756;9.192;2022-12-29T01:33:53;5.68;;;4.78;;
11539;SDS011;5826;54.756;9.192;2022-12-29T01:36:18;5.38;;;4.70;;
11539;SDS011;5826;54.756;9.192;2022-12-29T01:38:44;5.30;;;4.80;;
11539;SDS011;5826;54.756;9.192;2022-12-29T01:41:11;5.10;;;4.60;;
11539;SDS011;5826;54.756;9.192;2022-12-29T01:43:41;4.88;;;4.47;;
11539;SDS011;5826;54.756;9.192;2022-12-29T01:46:20;4.85;;;4.40;;
11539;SDS011;5826;54.756;9.192;2022-12-29T01:49:03;4.32;;;3.92;;
11539;SDS011;5826;54.756;9.192;2022-12-29T01:51:35;4.95;;;4.45;;
11539;SDS011;5826;54.756;9.192;2022-12-29T01:54:22;4.50;;;4.20;;
11539;SDS011;5826;54.756;9.192;2022-12-29T01:56:50;4.38;;;4.07;;
11539;SDS011;5826;54.756;9.192;2022-12-29T01:59:19;4.50;;;4.10;;
11539;SDS011;5826;54.756;9.192;2022-12-29T02:01:49;4.70;;;4.30;;
11539;SDS011;5826;54.756;9.192;2022-12-29T02:04:15;4.30;;;3.88;;
11539;SDS011;5826;54.756;9.192;2022-12-29T02:06:42;4.10;;;3.80;;
11539;SDS011;5826;54.756;9.192;2022-12-29T02:09:20;3.80;;;3.50;;
11539;SDS011;5826;54.756;9.192;2022-12-29T02:11:47;4.22;;;3.90;;
11539;SDS011;5826;54.756;9.192;2022-12-29T02:14:13;4.35;;;3.80;;
11539;SDS011;5826;54.756;9.192;2022-12-29T02:17:01;3.95;;;3.55;;
11539;SDS011;5826;54.756;9.192;2022-12-29T02:39:10;3.88;;;3.53;;
11539;SDS011;5826;54.756;9.192;2022-12-29T02:41:58;4.15;;;3.85;;
11539;SDS011;5826;54.756;9.192;2022-12-29T02:44:56;4.15;;;3.80;;
11539;SDS011;5826;54.756;9.192;2022-12-29T02:50:09;4.32;;;3.92;;
11539;SDS011;5826;54.756;9.192;2022-12-29T02:52:43;4.18;;;3.83;;
11539;SDS011;5826;54.756;9.192;2022-12-29T02:55:17;5.10;;;4.05;;
11539;SDS011;5826;54.756;9.192;2022-12-29T02:57:43;3.75;;;3.45;;
11539;SDS011;5826;54.756;9.192;2022-12-29T03:00:10;4.55;;;4.13;;
11539;SDS011;5826;54.756;9.192;2022-12-29T03:02:44;4.50;;;4.10;;
11539;SDS011;5826;54.756;9.192;2022-12-29T03:08:06;4.00;;;3.70;;
11539;SDS011;5826;54.756;9.192;2022-12-29T03:10:47;4.20;;;3.80;;
11539;SDS011;5826;54.756;9.192;2022-12-29T03:16:40;4.28;;;3.88;;
11539;SDS011;5826;54.756;9.192;2022-12-29T03:21:43;3.97;;;3.60;;
11539;SDS011;5826;54.756;9.192;2022-12-29T03:24:30;4.40;;;4.00;;
11539;SDS011;5826;54.756;9.192;2022-12-29T03:26:59;5.10;;;3.95;;
11539;SDS011;5826;54.756;9.192;2022-12-29T03:29:29;4.20;;;3.80;;
11539;SDS011;5826;54.756;9.192;2022-12-29T03:31:57;4.90;;;3.80;;
11539;SDS011;5826;54.756;9.192;2022-12-29T03:34:25;4.05;;;3.65;;
11539;SDS011;5826;54.756;9.192;2022-12-29T03:36:57;4.38;;;3.97;;
11539;SDS011;5826;54.756;9.192;2022-12-29T03:39:29;4.22;;;3.83;;
11539;SDS011;5826;54.756;9.192;2022-12-29T03:41:58;6.22;;;3.83;;
11539;SDS011;5826;54.756;9.192;2022-12-29T03:44:38;3.80;;;3.50;;
11539;SDS011;5826;54.756;9.192;2022-12-29T03:47:06;4.03;;;3.53;;
11539;SDS011;5826;54.756;9.192;2022-12-29T03:49:32;3.63;;;3.33;;
11539;SDS011;5826;54.756;9.192;2022-12-29T03:51:58;4.07;;;3.67;;
11539;SDS011;5826;54.756;9.192;2022-12-29T03:54:24;4.07;;;3.78;;
11539;SDS011;5826;54.756;9.192;2022-12-29T03:56:49;4.35;;;3.67;;
11539;SDS011;5826;54.756;9.192;2022-12-29T03:59:15;3.75;;;3.45;;
11539;SDS011;5826;54.756;9.192;2022-12-29T04:01:41;4.50;;;4.10;;
11539;SDS011;5826;54.756;9.192;2022-12-29T04:04:06;3.83;;;3.53;;
11539;SDS011;5826;54.756;9.192;2022-12-29T04:06:32;3.70;;;3.40;;
11539;SDS011;5826;54.756;9.192;2022-12-29T04:08:57;4.00;;;3.70;;
11539;SDS011;5826;54.756;9.192;2022-12-29T04:11:23;7.43;;;4.97;;
11539;SDS011;5826;54.756;9.192;2022-12-29T04:13:48;4.97;;;4.57;;
11539;SDS011;5826;54.756;9.192;2022-12-29T04:16:14;5.07;;;4.15;;
11539;SDS011;5826;54.756;9.192;2022-12-29T04:18:39;4.60;;;4.20;;
11539;SDS011;5826;54.756;9.192;2022-12-29T04:21:05;5.00;;;4.57;;
11539;SDS011;5826;54.756;9.192;2022-12-29T04:23:32;4.47;;;4.13;;
11539;SDS011;5826;54.756;9.192;2022-12-29T04:25:59;4.60;;;4.20;;
11539;SDS011;5826;54.756;9.192;2022-12-29T04:28:25;4.28;;;3.88;;
11539;SDS011;5826;54.756;9.192;2022-12-29T04:30:51;4.38;;;3.97;;
11539;SDS011;5826;54.756;9.192;2022-12-29T04:33:17;4.63;;;4.22;;
11539;SDS011;5826;54.756;9.192;2022-12-29T04:35:43;4.70;;;4.30;;
11539;SDS011;5826;54.756;9.192;2022-12-29T04:38:08;4.32;;;3.92;;
11539;SDS011;5826;54.756;9.192;2022-12-29T04:40:34;4.28;;;3.97;;
11539;SDS011;5826;54.756;9.192;2022-12-29T04:43:00;4.35;;;3.97;;
11539;SDS011;5826;54.756;9.192;2022-12-29T04:45:25;3.78;;;3.47;;
11539;SDS011;5826;54.756;9.192;2022-12-29T04:47:51;4.90;;;4.18;;
11539;SDS011;5826;54.756;9.192;2022-12-29T04:50:16;4.40;;;4.00;;
11539;SDS011;5826;54.756;9.192;2022-12-29T04:52:42;3.67;;;3.38;;
11539;SDS011;5826;54.756;9.192;2022-12-29T04:55:07;4.63;;;3.90;;
11539;SDS011;5826;54.756;9.192;2022-12-29T04:57:33;3.83;;;3.42;;
11539;SDS011;5826;54.756;9.192;2022-12-29T04:59:58;4.10;;;3.70;;
11539;SDS011;5826;54.756;9.192;2022-12-29T05:02:24;4.55;;;3.75;;
11539;SDS011;5826;54.756;9.192;2022-12-29T05:04:49;3.90;;;3.60;;
11539;SDS011;5826;54.756;9.192;2022-12-29T05:07:15;3.85;;;3.55;;
11539;SDS011;5826;54.756;9.192;2022-12-29T05:09:40;3.17;;;2.83;;
11539;SDS011;5826;54.756;9.192;2022-12-29T05:12:06;3.20;;;3.00;;
11539;SDS011;5826;54.756;9.192;2022-12-29T05:14:31;3.50;;;3.20;;
11539;SDS011;5826;54.756;9.192;2022-12-29T05:16:57;3.70;;;3.33;;
11539;SDS011;5826;54.756;9.192;2022-12-29T05:19:22;3.80;;;3.47;;
11539;SDS011;5826;54.756;9.192;2022-12-29T05:21:48;3.90;;;2.90;;
11539;SDS011;5826;54.756;9.192;2022-12-29T05:24:13;3.30;;;2.70;;
11539;SDS011;5826;54.756;9.192;2022-12-29T05:26:40;3.08;;;2.30;;
11539;SDS011;5826;54.756;9.192;2022-12-29T05:29:06;2.70;;;2.15;;
11539;SDS011;5826;54.756;9.192;2022-12-29T05:31:31;2.85;;;2.03;;
11539;SDS011;5826;54.756;9.192;2022-12-29T05:33:57;2.88;;;1.73;;
11539;SDS011;5826;54.756;9.192;2022-12-29T05:36:22;3.72;;;1.70;;
11539;SDS011;5826;54.756;9.192;2022-12-29T05:38:48;2.30;;;1.00;;
11539;SDS011;5826;54.756;9.192;2022-12-29T05:41:13;3.38;;;1.25;;
11539;SDS011;5826;54.756;9.192;2022-12-29T05:43:39;1.75;;;1.20;;
11539;SDS011;5826;54.756;9.192;2022-12-29T05:46:04;4.47;;;1.17;;
11539;SDS011;5826;54.756;9.192;2022-12-29T05:48:30;3.55;;;1.10;;
11539;SDS011;5826;54.756;9.192;2022-12-29T05:50:55;2.53;;;1.00;;
11539;SDS011;5826;54.756;9.192;2022-12-29T05:53:21;3.30;;;1.00;;
11539;SDS011;5826;54.756;9.192;2022-12-29T05:55:47;3.80;;;1.00;;
11539;SDS011;5826;54.756;9.192;2022-12-29T05:58:13;6.65;;;1.00;;
11539;SDS011;5826;54.756;9.192;2022-12-29T06:00:39;4.35;;;0.80;;
11539;SDS011;5826;54.756;9.192;2022-12-29T06:03:05;4.68;;;1.05;;
11539;SDS011;5826;54.756;9.192;2022-12-29T06:05:30;4.53;;;1.05;;
11539;SDS011;5826;54.756;9.192;2022-12-29T06:07:56;5.82;;;1.10;;
11539;SDS011;5826;54.756;9.192;2022-12-29T06:10:21;4.15;;;1.00;;
11539;SDS011;5826;54.756;9.192;2022-12-29T06:12:47;4.13;;;1.08;;
11539;SDS011;5826;54.756;9.192;2022-12-29T06:15:12;4.88;;;1.17;;
11539;SDS011;5826;54.756;9.192;2022-12-29T06:17:39;5.47;;;1.45;;
11539;SDS011;5826;54.756;9.192;2022-12-29T06:20:05;4.68;;;0.95;;
11539;SDS011;5826;54.756;9.192;2022-12-29T06:22:31;4.30;;;1.20;;
11539;SDS011;5826;54.756;9.192;2022-12-29T06:24:57;4.80;;;1.27;;
11539;SDS011;5826;54.756;9.192;2022-12-29T06:27:23;2.90;;;1.00;;
11539;SDS011;5826;54.756;9.192;2022-12-29T06:29:48;4.80;;;1.20;;
11539;SDS011;5826;54.756;9.192;2022-12-29T06:32:14;5.30;;;1.55;;
11539;SDS011;5826;54.756;9.192;2022-12-29T06:34:40;5.20;;;1.50;;
11539;SDS011;5826;54.756;9.192;2022-12-29T06:37:06;9.77;;;1.83;;
11539;SDS011;5826;54.756;9.192;2022-12-29T06:39:32;7.03;;;1.50;;
11539;SDS011;5826;54.756;9.192;2022-12-29T06:41:57;5.35;;;1.40;;
11539;SDS011;5826;54.756;9.192;2022-12-29T06:44:23;5.95;;;1.58;;
11539;SDS011;5826;54.756;9.192;2022-12-29T06:46:49;7.10;;;1.48;;
11539;SDS011;5826;54.756;9.192;2022-12-29T06:49:15;10.95;;;1.73;;
11539;SDS011;5826;54.756;9.192;2022-12-29T06:51:41;8.23;;;1.60;;
11539;SDS011;5826;54.756;9.192;2022-12-29T06:54:06;6.03;;;1.67;;
11539;SDS011;5826;54.756;9.192;2022-12-29T06:56:32;8.65;;;1.75;;
11539;SDS011;5826;54.756;9.192;2022-12-29T06:58:57;7.57;;;2.28;;
11539;SDS011;5826;54.756;9.192;2022-12-29T07:01:25;8.52;;;2.00;;
11539;SDS011;5826;54.756;9.192;2022-12-29T07:03:50;8.27;;;1.55;;
11539;SDS011;5826;54.756;9.192;2022-12-29T07:06:16;5.55;;;1.90;;
11539;SDS011;5826;54.756;9.192;2022-12-29T07:08:41;9.32;;;2.00;;
11539;SDS011;5826;54.756;9.192;2022-12-29T07:11:07;6.93;;;1.88;;
11539;SDS011;5826;54.756;9.192;2022-12-29T07:13:33;6.07;;;2.95;;
11539;SDS011;5826;54.756;9.192;2022-12-29T07:15:59;6.43;;;3.42;;
11539;SDS011;5826;54.756;9.192;2022-12-29T07:18:24;5.15;;;2.40;;
11539;SDS011;5826;54.756;9.192;2022-12-29T07:20:50;5.72;;;2.10;;
11539;SDS011;5826;54.756;9.192;2022-12-29T07:23:15;5.80;;;1.85;;
11539;SDS011;5826;54.756;9.192;2022-12-29T07:25:41;5.90;;;1.85;;
11539;SDS011;5826;54.756;9.192;2022-12-29T07:28:06;9.93;;;2.40;;
11539;SDS011;5826;54.756;9.192;2022-12-29T07:30:32;5.95;;;2.33;;
11539;SDS011;5826;54.756;9.192;2022-12-29T07:32:57;4.65;;;1.52;;
11539;SDS011;5826;54.756;9.192;2022-12-29T07:35:23;6.75;;;2.05;;
11539;SDS011;5826;54.756;9.192;2022-12-29T07:37:49;5.20;;;1.80;;
11539;SDS011;5826;54.756;9.192;2022-12-29T07:40:15;7.15;;;1.65;;
11539;SDS011;5826;54.756;9.192;2022-12-29T07:42:40;7.18;;;2.25;;
11539;SDS011;5826;54.756;9.192;2022-12-29T07:45:06;5.45;;;1.60;;
11539;SDS011;5826;54.756;9.192;2022-12-29T07:47:32;6.93;;;1.70;;
11539;SDS011;5826;54.756;9.192;2022-12-29T07:49:57;8.13;;;2.10;;
11539;SDS011;5826;54.756;9.192;2022-12-29T07:52:23;6.22;;;2.08;;
11539;SDS011;5826;54.756;9.192;2022-12-29T07:54:48;9.68;;;2.00;;
11539;SDS011;5826;54.756;9.192;2022-12-29T07:57:14;7.97;;;1.90;;
11539;SDS011;5826;54.756;9.192;2022-12-29T07:59:39;10.50;;;2.45;;
11539;SDS011;5826;54.756;9.192;2022-12-29T08:02:05;7.85;;;1.73;;
11539;SDS011;5826;54.756;9.192;2022-12-29T08:04:31;11.50;;;2.65;;
11539;SDS011;5826;54.756;9.192;2022-12-29T08:06:56;9.48;;;2.60;;
11539;SDS011;5826;54.756;9.192;2022-12-29T08:09:22;10.82;;;2.47;;
11539;SDS011;5826;54.756;9.192;2022-12-29T08:11:47;10.00;;;2.80;;
11539;SDS011;5826;54.756;9.192;2022-12-29T08:14:13;9.15;;;2.58;;
11539;SDS011;5826;54.756;9.192;2022-12-29T08:16:39;13.48;;;2.45;;
11539;SDS011;5826;54.756;9.192;2022-12-29T08:19:04;8.60;;;2.88;;
11539;SDS011;5826;54.756;9.192;2022-12-29T08:21:30;7.80;;;2.28;;
11539;SDS011;5826;54.756;9.192;2022-12-29T08:23:56;11.45;;;2.45;;
11539;SDS011;5826;54.756;9.192;2022-12-29T08:26:21;10.63;;;2.67;;
11539;SDS011;5826;54.756;9.192;2022-12-29T08:28:47;12.45;;;2.58;;
11539;SDS011;5826;54.756;9.192;2022-12-29T08:31:13;8.98;;;2.53;;
11539;SDS011;5826;54.756;9.192;2022-12-29T08:33:38;8.10;;;2.40;;
11539;SDS011;5826;54.756;9.192;2022-12-29T08:36:04;10.90;;;2.63;;
11539;SDS011;5826;54.756;9.192;2022-12-29T08:38:31;13.98;;;2.90;;
11539;SDS011;5826;54.756;9.192;2022-12-29T08:40:57;10.68;;;2.70;;
11539;SDS011;5826;54.756;9.192;2022-12-29T08:43:24;10.75;;;2.60;;
11539;SDS011;5826;54.756;9.192;2022-12-29T08:45:50;9.63;;;2.53;;
11539;SDS011;5826;54.756;9.192;2022-12-29T08:48:16;8.70;;;2.42;;
11539;SDS011;5826;54.756;9.192;2022-12-29T08:50:44;10.98;;;2.70;;
11539;SDS011;5826;54.756;9.192;2022-12-29T08:53:12;12.73;;;2.78;;
11539;SDS011;5826;54.756;9.192;2022-12-29T08:55:37;10.38;;;2.63;;
11539;SDS011;5826;54.756;9.192;2022-12-29T08:58:03;10.80;;;2.72;;
11539;SDS011;5826;54.756;9.192;2022-12-29T09:00:28;12.40;;;2.97;;
11539;SDS011;5826;54.756;9.192;2022-12-29T09:02:54;10.93;;;2.85;;
11539;SDS011;5826;54.756;9.192;2022-12-29T09:05:19;10.80;;;2.75;;
11539;SDS011;5826;54.756;9.192;2022-12-29T09:07:46;9.30;;;3.03;;
11539;SDS011;5826;54.756;9.192;2022-12-29T09:10:11;11.18;;;2.28;;
11539;SDS011;5826;54.756;9.192;2022-12-29T09:12:37;11.23;;;2.67;;
11539;SDS011;5826;54.756;9.192;2022-12-29T09:15:03;10.98;;;2.42;;
11539;SDS011;5826;54.756;9.192;2022-12-29T09:17:29;12.98;;;2.90;;
11539;SDS011;5826;54.756;9.192;2022-12-29T09:20:17;14.95;;;2.75;;
11539;SDS011;5826;54.756;9.192;2022-12-29T09:22:44;12.85;;;3.03;;
11539;SDS011;5826;54.756;9.192;2022-12-29T09:25:10;12.02;;;2.80;;
11539;SDS011;5826;54.756;9.192;2022-12-29T09:27:36;9.75;;;2.20;;
11539;SDS011;5826;54.756;9.192;2022-12-29T09:30:03;9.98;;;2.22;;
11539;SDS011;5826;54.756;9.192;2022-12-29T09:32:30;9.23;;;2.10;;
11539;SDS011;5826;54.756;9.192;2022-12-29T09:34:56;11.48;;;2.65;;
11539;SDS011;5826;54.756;9.192;2022-12-29T09:37:21;9.57;;;2.65;;
11539;SDS011;5826;54.756;9.192;2022-12-29T09:39:47;11.82;;;2.67;;
11539;SDS011;5826;54.756;9.192;2022-12-29T09:42:20;9.82;;;2.85;;
11539;SDS011;5826;54.756;9.192;2022-12-29T09:45:06;10.48;;;2.25;;
11539;SDS011;5826;54.756;9.192;2022-12-29T09:47:39;12.93;;;2.60;;
11539;SDS011;5826;54.756;9.192;2022-12-29T09:50:13;9.38;;;2.80;;
11539;SDS011;5826;54.756;9.192;2022-12-29T09:55:47;10.20;;;2.33;;
11539;SDS011;5826;54.756;9.192;2022-12-29T09:58:21;10.00;;;2.45;;
11539;SDS011;5826;54.756;9.192;2022-12-29T10:01:04;15.60;;;2.97;;
11539;SDS011;5826;54.756;9.192;2022-12-29T10:03:40;9.93;;;2.55;;
11539;SDS011;5826;54.756;9.192;2022-12-29T10:06:22;14.68;;;2.58;;
11539;SDS011;5826;54.756;9.192;2022-12-29T10:08:57;12.18;;;3.05;;
11539;SDS011;5826;54.756;9.192;2022-12-29T10:22:36;13.35;;;3.50;;
11539;SDS011;5826;54.756;9.192;2022-12-29T10:25:19;10.27;;;2.88;;
11539;SDS011;5826;54.756;9.192;2022-12-29T10:27:50;10.52;;;3.00;;
11539;SDS011;5826;54.756;9.192;2022-12-29T10:30:17;16.30;;;3.40;;
11539;SDS011;5826;54.756;9.192;2022-12-29T10:32:47;9.27;;;2.58;;
11539;SDS011;5826;54.756;9.192;2022-12-29T10:35:37;11.48;;;3.33;;
11539;SDS011;5826;54.756;9.192;2022-12-29T10:41:15;10.93;;;2.92;;
11539;SDS011;5826;54.756;9.192;2022-12-29T10:43:46;9.43;;;2.63;;
11539;SDS011;5826;54.756;9.192;2022-12-29T10:46:13;10.80;;;2.83;;
11539;SDS011;5826;54.756;9.192;2022-12-29T10:48:42;9.63;;;2.25;;
11539;SDS011;5826;54.756;9.192;2022-12-29T10:51:10;7.28;;;2.38;;
11539;SDS011;5826;54.756;9.192;2022-12-29T10:54:00;12.30;;;2.50;;
11539;SDS011;5826;54.756;9.192;2022-12-29T10:56:39;11.27;;;2.30;;
11539;SDS011;5826;54.756;9.192;2022-12-29T10:59:15;11.50;;;2.45;;
11539;SDS011;5826;54.756;9.192;2022-12-29T11:06:55;12.35;;;2.50;;
11539;SDS011;5826;54.756;9.192;2022-12-29T11:09:29;8.45;;;2.40;;
11539;SDS011;5826;54.756;9.192;2022-12-29T11:11:57;11.95;;;2.63;;
11539;SDS011;5826;54.756;9.192;2022-12-29T11:14:27;7.53;;;2.33;;
11539;SDS011;5826;54.756;9.192;2022-12-29T11:17:01;9.10;;;2.33;;
11539;SDS011;5826;54.756;9.192;2022-12-29T11:19:29;9.73;;;2.63;;
11539;SDS011;5826;54.756;9.192;2022-12-29T11:22:12;8.88;;;2.75;;
11539;SDS011;5826;54.756;9.192;2022-12-29T11:24:43;10.45;;;2.45;;
11539;SDS011;5826;54.756;9.192;2022-12-29T11:27:14;12.93;;;3.03;;
11539;SDS011;5826;54.756;9.192;2022-12-29T11:29:41;16.65;;;4.25;;
11539;SDS011;5826;54.756;9.192;2022-12-29T11:32:11;13.05;;;3.00;;
11539;SDS011;5826;54.756;9.192;2022-12-29T11:34:44;9.48;;;2.25;;
11539;SDS011;5826;54.756;9.192;2022-12-29T11:37:11;9.35;;;2.20;;
11539;SDS011;5826;54.756;9.192;2022-12-29T11:42:05;12.93;;;3.15;;
11539;SDS011;5826;54.756;9.192;2022-12-29T11:44:37;8.02;;;2.47;;
11539;SDS011;5826;54.756;9.192;2022-12-29T11:47:07;15.05;;;3.00;;
11539;SDS011;5826;54.756;9.192;2022-12-29T11:49:37;9.13;;;2.45;;
11539;SDS011;5826;54.756;9.192;2022-12-29T11:52:03;9.43;;;2.78;;
11539;SDS011;5826;54.756;9.192;2022-12-29T11:54:30;10.93;;;2.60;;
11539;SDS011;5826;54.756;9.192;2022-12-29T11:57:08;9.13;;;2.50;;
11539;SDS011;5826;54.756;9.192;2022-12-29T11:59:39;8.40;;;2.50;;
11539;SDS011;5826;54.756;9.192;2022-12-29T12:02:50;9.00;;;2.47;;
11539;SDS011;5826;54.756;9.192;2022-12-29T12:05:23;9.98;;;2.63;;
11539;SDS011;5826;54.756;9.192;2022-12-29T12:07:56;8.55;;;2.83;;
11539;SDS011;5826;54.756;9.192;2022-12-29T12:10:29;11.60;;;3.03;;
11539;SDS011;5826;54.756;9.192;2022-12-29T12:13:05;16.27;;;3.75;;
11539;SDS011;5826;54.756;9.192;2022-12-29T12:15:49;9.18;;;2.55;;
11539;SDS011;5826;54.756;9.192;2022-12-29T12:19:20;7.85;;;2.67;;
11539;SDS011;5826;54.756;9.192;2022-12-29T12:29:27;8.32;;;2.40;;
11539;SDS011;5826;54.756;9.192;2022-12-29T12:32:04;9.68;;;2.58;;
11539;SDS011;5826;54.756;9.192;2022-12-29T12:34:44;9.57;;;2.70;;
11539;SDS011;5826;54.756;9.192;2022-12-29T12:37:16;7.22;;;2.20;;
11539;SDS011;5826;54.756;9.192;2022-12-29T12:42:57;9.13;;;2.38;;
11539;SDS011;5826;54.756;9.192;2022-12-29T12:45:55;8.48;;;2.30;;
11539;SDS011;5826;54.756;9.192;2022-12-29T12:48:53;9.75;;;2.35;;
11539;SDS011;5826;54.756;9.192;2022-12-29T12:51:33;7.28;;;2.70;;
11539;SDS011;5826;54.756;9.192;2022-12-29T12:54:20;8.23;;;2.85;;
11539;SDS011;5826;54.756;9.192;2022-12-29T13:00:12;12.32;;;2.92;;
11539;SDS011;5826;54.756;9.192;2022-12-29T13:02:51;11.23;;;2.75;;
11539;SDS011;5826;54.756;9.192;2022-12-29T13:05:28;11.95;;;2.70;;
11539;SDS011;5826;54.756;9.192;2022-12-29T13:08:30;10.23;;;3.20;;
11539;SDS011;5826;54.756;9.192;2022-12-29T13:14:14;11.73;;;3.25;;
11539;SDS011;5826;54.756;9.192;2022-12-29T13:16:49;12.80;;;3.20;;
11539;SDS011;5826;54.756;9.192;2022-12-29T13:19:43;9.52;;;2.90;;
11539;SDS011;5826;54.756;9.192;2022-12-29T13:22:18;12.18;;;3.78;;
11539;SDS011;5826;54.756;9.192;2022-12-29T13:30:34;20.13;;;4.82;;
11539;SDS011;5826;54.756;9.192;2022-12-29T13:33:31;16.35;;;4.82;;
11539;SDS011;5826;54.756;9.192;2022-12-29T13:36:37;18.10;;;4.82;;
11539;SDS011;5826;54.756;9.192;2022-12-29T13:39:11;18.85;;;5.03;;
11539;SDS011;5826;54.756;9.192;2022-12-29T13:41:47;21.13;;;4.90;;
11539;SDS011;5826;54.756;9.192;2022-12-29T13:44:17;23.17;;;6.03;;
11539;SDS011;5826;54.756;9.192;2022-12-29T13:46:48;21.50;;;4.50;;
11539;SDS011;5826;54.756;9.192;2022-12-29T13:49:18;23.60;;;5.10;;
11539;SDS011;5826;54.756;9.192;2022-12-29T13:51:49;22.38;;;5.32;;
11539;SDS011;5826;54.756;9.192;2022-12-29T13:54:26;17.45;;;5.00;;
11539;SDS011;5826;54.756;9.192;2022-12-29T14:00:11;26.50;;;5.82;;
11539;SDS011;5826;54.756;9.192;2022-12-29T14:07:44;25.90;;;5.43;;
11539;SDS011;5826;54.756;9.192;2022-12-29T14:10:27;17.73;;;4.43;;
11539;SDS011;5826;54.756;9.192;2022-12-29T14:15:28;19.33;;;5.60;;
11539;SDS011;5826;54.756;9.192;2022-12-29T14:18:04;16.38;;;4.65;;
11539;SDS011;5826;54.756;9.192;2022-12-29T14:20:40;18.70;;;4.22;;
11539;SDS011;5826;54.756;9.192;2022-12-29T14:23:27;15.40;;;4.53;;
11539;SDS011;5826;54.756;9.192;2022-12-29T14:28:32;19.15;;;3.92;;
11539;SDS011;5826;54.756;9.192;2022-12-29T14:30:59;17.45;;;4.13;;
11539;SDS011;5826;54.756;9.192;2022-12-29T14:33:40;22.27;;;4.32;;
11539;SDS011;5826;54.756;9.192;2022-12-29T14:36:36;18.05;;;3.95;;
11539;SDS011;5826;54.756;9.192;2022-12-29T14:39:31;18.30;;;3.80;;
11539;SDS011;5826;54.756;9.192;2022-12-29T14:42:06;16.45;;;3.80;;
11539;SDS011;5826;54.756;9.192;2022-12-29T14:44:53;19.33;;;4.10;;
11539;SDS011;5826;54.756;9.192;2022-12-29T14:49:55;16.05;;;3.67;;
11539;SDS011;5826;54.756;9.192;2022-12-29T14:52:52;13.88;;;3.03;;
11539;SDS011;5826;54.756;9.192;2022-12-29T14:55:44;13.95;;;3.40;;
11539;SDS011;5826;54.756;9.192;2022-12-29T14:58:30;16.02;;;4.03;;
11539;SDS011;5826;54.756;9.192;2022-12-29T15:00:58;18.23;;;3.78;;
11539;SDS011;5826;54.756;9.192;2022-12-29T15:06:06;18.00;;;4.15;;
11539;SDS011;5826;54.756;9.192;2022-12-29T15:08:39;20.77;;;5.30;;
11539;SDS011;5826;54.756;9.192;2022-12-29T15:11:15;24.08;;;5.10;;
11539;SDS011;5826;54.756;9.192;2022-12-29T15:13:44;19.95;;;4.40;;
11539;SDS011;5826;54.756;9.192;2022-12-29T15:16:26;18.67;;;4.82;;
11539;SDS011;5826;54.756;9.192;2022-12-29T15:18:58;19.23;;;5.20;;
11539;SDS011;5826;54.756;9.192;2022-12-29T15:21:30;18.75;;;4.63;;
11539;SDS011;5826;54.756;9.192;2022-12-29T15:23:58;19.88;;;4.53;;
11539;SDS011;5826;54.756;9.192;2022-12-29T15:26:35;14.13;;;3.85;;
11539;SDS011;5826;54.756;9.192;2022-12-29T15:29:05;17.65;;;3.90;;
11539;SDS011;5826;54.756;9.192;2022-12-29T15:31:51;19.67;;;5.03;;
11539;SDS011;5826;54.756;9.192;2022-12-29T15:34:19;17.13;;;4.32;;
11539;SDS011;5826;54.756;9.192;2022-12-29T15:36:46;16.50;;;3.63;;
11539;SDS011;5826;54.756;9.192;2022-12-29T15:39:19;21.45;;;4.85;;
11539;SDS011;5826;54.756;9.192;2022-12-29T15:44:45;19.80;;;4.75;;
11539;SDS011;5826;54.756;9.192;2022-12-29T15:47:15;19.42;;;4.47;;
11539;SDS011;5826;54.756;9.192;2022-12-29T15:49:50;14.35;;;4.00;;
11539;SDS011;5826;54.756;9.192;2022-12-29T15:52:19;15.75;;;3.90;;
11539;SDS011;5826;54.756;9.192;2022-12-29T15:54:46;14.88;;;4.03;;
11539;SDS011;5826;54.756;9.192;2022-12-29T15:57:27;19.48;;;4.28;;
11539;SDS011;5826;54.756;9.192;2022-12-29T15:59:57;21.55;;;5.32;;
11539;SDS011;5826;54.756;9.192;2022-12-29T16:02:24;14.98;;;5.75;;
11539;SDS011;5826;54.756;9.192;2022-12-29T16:04:50;14.98;;;4.22;;
11539;SDS011;5826;54.756;9.192;2022-12-29T16:07:30;12.70;;;4.03;;
11539;SDS011;5826;54.756;9.192;2022-12-29T16:09:59;17.38;;;4.25;;
11539;SDS011;5826;54.756;9.192;2022-12-29T16:12:28;17.77;;;3.97;;
11539;SDS011;5826;54.756;9.192;2022-12-29T16:15:00;14.98;;;4.70;;
11539;SDS011;5826;54.756;9.192;2022-12-29T16:17:33;19.60;;;5.65;;
11539;SDS011;5826;54.756;9.192;2022-12-29T16:20:17;19.50;;;5.83;;
11539;SDS011;5826;54.756;9.192;2022-12-29T16:22:48;21.40;;;4.50;;
11539;SDS011;5826;54.756;9.192;2022-12-29T16:25:22;17.08;;;4.95;;
11539;SDS011;5826;54.756;9.192;2022-12-29T16:27:59;19.55;;;6.95;;
11539;SDS011;5826;54.756;9.192;2022-12-29T16:32:54;18.03;;;7.47;;
11539;SDS011;5826;54.756;9.192;2022-12-29T16:35:22;21.48;;;7.88;;
11539;SDS011;5826;54.756;9.192;2022-12-29T16:38:51;17.00;;;3.95;;
11539;SDS011;5826;54.756;9.192;2022-12-29T16:40:58;14.00;;;4.23;;
11539;SDS011;5826;54.756;9.192;2022-12-29T16:43:29;17.83;;;5.83;;
11539;SDS011;5826;54.756;9.192;2022-12-29T16:48:26;18.15;;;5.38;;
11539;SDS011;5826;54.756;9.192;2022-12-29T16:51:00;16.50;;;4.47;;
11539;SDS011;5826;54.756;9.192;2022-12-29T16:53:41;12.98;;;5.03;;
11539;SDS011;5826;54.756;9.192;2022-12-29T16:56:18;13.93;;;4.20;;
11539;SDS011;5826;54.756;9.192;2022-12-29T16:58:50;14.07;;;4.05;;
11539;SDS011;5826;54.756;9.192;2022-12-29T17:01:25;13.23;;;4.05;;
11539;SDS011;5826;54.756;9.192;2022-12-29T17:03:52;16.60;;;4.32;;
11539;SDS011;5826;54.756;9.192;2022-12-29T17:06:22;15.07;;;4.75;;